Hall, Louisiana
Current Conditions -  °F | °C
As of 8:35 PM on Saturday 20 Dec 2014 (Local Time) from KIER Reporting Station
Clear Clear  
Wind Chill: 39°   Ceiling: Unl
Heat Index: 43°   Visibility: 7mi
Dew Point: 42°   Wind: 6mph
Humidity: 98%   Direction: 320°NW
Pressure: 30.21"   Gusts: NA
Location:  31.6668°N, 92.8023°W
Report Text: KIER 210235Z AUTO 32005KT 7SM CLR 06/06 A3021 RMK AO2 T00600057
Loading
Personal Weather Stations






























Interactive Weather Map New forecast layout! Learn more

10-Day Weather Forecast

Advertisements
Track Severe Weather on mobile